createdAt,value
2022-07-31T00:01:44.175Z,100812.28
2022-07-31T00:04:12.141Z,100813.81
2022-07-31T00:06:47.206Z,100808.03
2022-07-31T00:09:53.703Z,100806.38
2022-07-31T00:12:06.333Z,100805.78
2022-07-31T00:14:37.082Z,100806.72
2022-07-31T00:17:05.778Z,100802.72
2022-07-31T00:19:34.042Z,100805.88
2022-07-31T00:22:02.414Z,100800.81
2022-07-31T00:24:45.725Z,100794.75
2022-07-31T00:27:13.903Z,100810.59
2022-07-31T00:29:41.855Z,100808.25
2022-07-31T00:32:11.608Z,100801.66
2022-07-31T00:34:42.872Z,100799.88
2022-07-31T00:37:11.210Z,100796.31
2022-07-31T00:39:46.851Z,100794.63
2022-07-31T00:42:18.436Z,100793.09
2022-07-31T00:44:47.906Z,100806.66
2022-07-31T00:47:16.995Z,100796.41
2022-07-31T00:49:45.919Z,100797.53
2022-07-31T00:52:16.338Z,100793.91
2022-07-31T00:54:48.939Z,100788.78
2022-07-31T00:57:16.900Z,100792.19
2022-07-31T00:59:45.758Z,100778.75
2022-07-31T01:02:13.712Z,100793.78
2022-07-31T01:04:55.527Z,100784.78
2022-07-31T01:07:23.779Z,100795.78
2022-07-31T01:09:55.500Z,100784.19
2022-07-31T01:12:31.445Z,100777.56
2022-07-31T01:15:06.185Z,100787.50
2022-07-31T01:17:36.514Z,100780.31
2022-07-31T01:20:05.871Z,100785.25
2022-07-31T01:22:53.384Z,100787.94
2022-07-31T01:25:48.632Z,100781.00
2022-07-31T01:28:31.075Z,100788.66
2022-07-31T01:31:26.220Z,100784.22
2022-07-31T01:34:01.215Z,100778.59
2022-07-31T01:36:35.187Z,100779.88
2022-07-31T01:39:04.116Z,100781.72
2022-07-31T01:41:39.150Z,100775.59
2022-07-31T01:44:13.982Z,100773.56
2022-07-31T01:46:45.888Z,100772.81
2022-07-31T01:49:15.888Z,100768.53
2022-07-31T01:51:54.894Z,100773.22
2022-07-31T01:54:34.109Z,100777.44
2022-07-31T01:57:04.551Z,100774.19
2022-07-31T01:59:35.441Z,100780.06
2022-07-31T02:02:06.022Z,100783.00
2022-07-31T02:04:38.553Z,100783.88
2022-07-31T02:07:08.321Z,100779.56
2022-07-31T02:09:37.915Z,100781.28
2022-07-31T02:12:31.938Z,100787.53
2022-07-31T02:15:05.671Z,100774.94
2022-07-31T02:17:35.478Z,100770.84
2022-07-31T02:20:06.949Z,100775.63
2022-07-31T02:22:35.520Z,100778.53
2022-07-31T02:25:03.971Z,100775.66
2022-07-31T02:27:53.826Z,100771.47
2022-07-31T02:30:39.045Z,100768.41
2022-07-31T02:33:13.670Z,100767.19
2022-07-31T02:35:45.967Z,100772.19
2022-07-31T02:38:22.500Z,100774.50
2022-07-31T02:40:52.847Z,100777.84
2022-07-31T02:43:21.830Z,100764.38
2022-07-31T02:45:50.076Z,100773.09
2022-07-31T02:48:21.392Z,100776.22
2022-07-31T02:50:49.815Z,100768.59
2022-07-31T02:53:17.886Z,100768.03
2022-07-31T02:55:53.027Z,100760.19
2022-07-31T02:58:21.445Z,100758.78
2022-07-31T03:00:49.457Z,100760.66
2022-07-31T03:03:17.922Z,100758.56
2022-07-31T03:05:47.364Z,100761.41
2022-07-31T03:08:15.301Z,100757.59
2022-07-31T03:10:50.323Z,100750.44
2022-07-31T03:13:22.581Z,100754.28
2022-07-31T03:15:53.167Z,100748.97
2022-07-31T03:18:21.874Z,100745.72
2022-07-31T03:20:52.913Z,100755.72
2022-07-31T03:23:23.663Z,100758.88
2022-07-31T03:25:52.340Z,100747.97
2022-07-31T03:28:21.191Z,100755.91
2022-07-31T03:30:56.112Z,100748.72
2022-07-31T03:33:24.856Z,100743.41
2022-07-31T03:35:54.548Z,100746.53
2022-07-31T03:38:39.222Z,100747.63
2022-07-31T03:41:11.404Z,100737.72
2022-07-31T03:43:49.097Z,100739.88
2022-07-31T03:46:19.879Z,100740.13
2022-07-31T03:48:52.487Z,100742.03
2022-07-31T03:51:22.810Z,100739.81
2022-07-31T03:53:51.770Z,100740.31
2022-07-31T03:56:20.723Z,100744.09
2022-07-31T03:58:52.490Z,100736.50
2022-07-31T04:01:22.132Z,100739.56
2022-07-31T04:03:50.309Z,100735.91
2022-07-31T04:06:18.360Z,100739.44
2022-07-31T04:08:49.022Z,100740.63
2022-07-31T04:11:17.962Z,100744.59
2022-07-31T04:13:46.161Z,100740.25
2022-07-31T04:16:16.060Z,100738.88
2022-07-31T04:18:50.730Z,100735.22
2022-07-31T04:21:19.137Z,100742.25
2022-07-31T04:23:50.100Z,100730.41
2022-07-31T04:26:20.057Z,100745.91
2022-07-31T04:28:54.515Z,100731.91
2022-07-31T04:31:22.558Z,100725.13
2022-07-31T04:33:55.971Z,100732.84
2022-07-31T04:36:29.630Z,100730.03
2022-07-31T04:39:00.198Z,100736.16
2022-07-31T04:41:28.840Z,100742.38
2022-07-31T04:43:57.935Z,100731.41
2022-07-31T04:49:33.244Z,100741.88
2022-07-31T04:52:02.325Z,100731.59
2022-07-31T04:54:32.252Z,100723.47
2022-07-31T04:57:01.766Z,100728.41
2022-07-31T04:59:59.434Z,100731.91
2022-07-31T05:02:45.025Z,100725.78
2022-07-31T05:05:13.018Z,100737.38
2022-07-31T05:07:41.280Z,100736.69
2022-07-31T05:10:31.500Z,100734.25
2022-07-31T05:13:00.241Z,100723.91
2022-07-31T05:15:30.090Z,100728.09
2022-07-31T05:18:01.006Z,100732.31
2022-07-31T05:20:29.126Z,100732.63
2022-07-31T05:22:57.247Z,100723.78
2022-07-31T05:25:27.106Z,100727.44
2022-07-31T05:27:55.409Z,100740.72
2022-07-31T05:30:30.597Z,100737.66
2022-07-31T05:32:59.925Z,100737.22
2022-07-31T05:35:27.950Z,100734.41
2022-07-31T05:37:56.071Z,100734.75
2022-07-31T05:40:24.651Z,100737.31
2022-07-31T05:42:54.075Z,100726.25
2022-07-31T05:45:22.195Z,100734.66
2022-07-31T05:47:50.523Z,100734.06
2022-07-31T05:50:19.250Z,100732.03
2022-07-31T05:52:47.280Z,100738.66
2022-07-31T05:55:15.254Z,100738.47
2022-07-31T05:57:45.541Z,100739.19
2022-07-31T06:00:17.629Z,100742.75
2022-07-31T06:02:49.349Z,100743.44
2022-07-31T06:05:17.492Z,100741.66
2022-07-31T06:07:51.240Z,100738.09
2022-07-31T06:10:20.315Z,100745.66
2022-07-31T06:12:48.695Z,100736.84
2022-07-31T06:15:19.227Z,100733.16
2022-07-31T06:17:51.289Z,100742.28
2022-07-31T06:20:20.516Z,100734.13
2022-07-31T06:22:48.563Z,100742.03
2022-07-31T06:25:17.156Z,100734.47
2022-07-31T06:27:55.024Z,100734.03
2022-07-31T06:30:29.164Z,100742.81
2022-07-31T06:32:57.206Z,100737.06
2022-07-31T06:35:25.414Z,100736.31
2022-07-31T06:37:54.206Z,100732.06
2022-07-31T06:40:22.683Z,100724.25
2022-07-31T06:42:52.807Z,100718.63
2022-07-31T06:45:35.677Z,100723.59
2022-07-31T06:48:14.303Z,100718.22
2022-07-31T06:50:45.921Z,100721.56
2022-07-31T06:53:13.999Z,100718.09
2022-07-31T06:55:44.418Z,100720.91
2022-07-31T06:58:12.990Z,100721.72
2022-07-31T07:00:41.434Z,100713.53
2022-07-31T07:03:10.739Z,100714.06
2022-07-31T07:05:43.842Z,100710.13
2022-07-31T07:08:13.238Z,100712.47
2022-07-31T07:10:42.939Z,100714.41
2022-07-31T07:13:11.216Z,100709.78
2022-07-31T07:15:40.986Z,100704.22
2022-07-31T07:18:10.878Z,100702.16
2022-07-31T07:20:38.977Z,100700.25
2022-07-31T07:23:07.088Z,100692.84
2022-07-31T07:25:35.161Z,100690.94
2022-07-31T07:28:03.137Z,100694.19
2022-07-31T07:30:31.119Z,100695.22
2022-07-31T07:32:59.874Z,100688.13
2022-07-31T07:35:47.426Z,100681.00
2022-07-31T07:38:15.733Z,100687.84
2022-07-31T07:40:44.680Z,100693.88
2022-07-31T07:43:12.766Z,100690.63
2022-07-31T07:45:41.975Z,100690.84
2022-07-31T07:48:10.444Z,100685.38
2022-07-31T07:50:41.996Z,100685.97
2022-07-31T07:53:13.092Z,100688.81
2022-07-31T07:55:41.165Z,100686.38
2022-07-31T07:58:12.012Z,100682.25
2022-07-31T08:00:40.948Z,100682.88
2022-07-31T08:03:48.753Z,100674.06
2022-07-31T08:05:58.458Z,100663.94
2022-07-31T08:08:40.208Z,100678.47
2022-07-31T08:11:08.452Z,100671.53
2022-07-31T08:13:36.745Z,100670.72
2022-07-31T08:16:10.756Z,100663.84
2022-07-31T08:18:39.100Z,100664.00
2022-07-31T08:21:08.530Z,100658.53
2022-07-31T08:23:36.755Z,100654.94
2022-07-31T08:26:06.648Z,100666.72
2022-07-31T08:28:36.095Z,100666.91
2022-07-31T08:31:06.251Z,100664.38
2022-07-31T08:33:37.594Z,100664.00
2022-07-31T08:36:09.358Z,100658.09
2022-07-31T08:38:39.583Z,100655.41
2022-07-31T08:41:09.040Z,100655.78
2022-07-31T08:44:01.751Z,100652.72
2022-07-31T08:46:27.051Z,100651.31
2022-07-31T08:48:58.548Z,100645.59
2022-07-31T08:51:27.795Z,100656.78
2022-07-31T08:53:58.447Z,100644.56
2022-07-31T08:56:27.064Z,100650.69
2022-07-31T08:58:57.462Z,100644.69
2022-07-31T09:01:26.015Z,100639.78
2022-07-31T09:03:55.394Z,100640.81
2022-07-31T09:06:23.515Z,100639.88
2022-07-31T09:11:54.168Z,100641.28
2022-07-31T09:14:30.215Z,100641.94
2022-07-31T09:16:58.616Z,100636.09
2022-07-31T09:19:52.049Z,100628.53
2022-07-31T09:22:23.814Z,100624.13
2022-07-31T09:24:52.272Z,100624.34
2022-07-31T09:27:29.021Z,100626.63
2022-07-31T09:29:58.229Z,100630.41
2022-07-31T09:32:26.363Z,100623.88
2022-07-31T09:34:55.471Z,100621.16
2022-07-31T09:37:27.457Z,100618.31
2022-07-31T09:39:58.214Z,100623.53
2022-07-31T09:42:38.155Z,100619.19
2022-07-31T09:45:17.957Z,100612.88
2022-07-31T09:47:46.798Z,100615.22
2022-07-31T09:50:15.636Z,100609.72
2022-07-31T09:52:44.401Z,100622.66
2022-07-31T09:55:17.050Z,100617.16
2022-07-31T09:58:11.807Z,100615.53
2022-07-31T10:00:40.681Z,100610.69
2022-07-31T10:03:09.492Z,100612.84
2022-07-31T10:05:39.448Z,100605.34
2022-07-31T10:08:08.027Z,100608.19
2022-07-31T10:10:40.357Z,100604.50
2022-07-31T10:13:13.363Z,100607.84
2022-07-31T10:15:42.032Z,100603.91
2022-07-31T10:18:11.425Z,100604.50
2022-07-31T10:20:43.311Z,100596.97
2022-07-31T10:23:27.449Z,100599.22
2022-07-31T10:26:00.641Z,100597.19
2022-07-31T10:28:30.880Z,100603.75
2022-07-31T10:30:59.733Z,100602.84
2022-07-31T10:33:43.693Z,100600.59
2022-07-31T10:36:19.322Z,100601.56
2022-07-31T10:38:53.170Z,100600.59
2022-07-31T10:41:32.147Z,100602.00
2022-07-31T10:44:06.825Z,100609.16
2022-07-31T10:46:35.312Z,100601.63
2022-07-31T10:49:10.649Z,100595.53
2022-07-31T10:51:51.118Z,100601.00
2022-07-31T10:54:19.239Z,100594.13
2022-07-31T10:56:48.388Z,100589.94
2022-07-31T10:59:28.803Z,100605.88
2022-07-31T11:01:57.030Z,100594.44
2022-07-31T11:04:28.747Z,100592.88
2022-07-31T11:06:57.676Z,100597.38
2022-07-31T11:09:26.956Z,100591.25
2022-07-31T11:11:56.056Z,100599.72
2022-07-31T11:14:39.103Z,100592.59
2022-07-31T11:17:07.551Z,100584.69
2022-07-31T11:19:41.430Z,100586.28
2022-07-31T11:22:30.872Z,100588.38
2022-07-31T11:25:02.408Z,100586.69
2022-07-31T11:27:36.838Z,100591.50
2022-07-31T11:30:13.513Z,100583.94
2022-07-31T11:32:42.081Z,100581.72
2022-07-31T11:35:10.522Z,100577.34
2022-07-31T11:37:57.116Z,100575.13
2022-07-31T11:40:27.698Z,100570.16
2022-07-31T11:45:52.278Z,100571.53
2022-07-31T11:48:22.465Z,100567.47
2022-07-31T11:50:52.765Z,100568.25
2022-07-31T11:53:21.366Z,100564.75
2022-07-31T11:55:54.047Z,100564.53
2022-07-31T11:58:24.045Z,100554.56
2022-07-31T12:00:55.453Z,100552.00
2022-07-31T12:03:42.209Z,100546.13
2022-07-31T12:06:11.547Z,100550.47
2022-07-31T12:08:41.004Z,100538.44
2022-07-31T12:11:11.368Z,100538.81
2022-07-31T12:13:49.257Z,100542.66
2022-07-31T12:16:19.931Z,100545.41
2022-07-31T12:18:49.652Z,100523.91
2022-07-31T12:21:18.835Z,100530.94
2022-07-31T12:23:50.097Z,100527.09
2022-07-31T12:26:32.539Z,100525.41
2022-07-31T12:29:02.050Z,100524.75
2022-07-31T12:31:44.552Z,100515.59
2022-07-31T12:34:12.782Z,100522.06
2022-07-31T12:36:40.851Z,100523.81
2022-07-31T12:39:08.939Z,100520.69
2022-07-31T12:41:46.197Z,100517.28
2022-07-31T12:44:35.144Z,100515.44
2022-07-31T12:47:04.854Z,100509.31
2022-07-31T12:49:36.441Z,100508.34
2022-07-31T12:52:04.721Z,100502.16
2022-07-31T12:54:37.821Z,100502.16
2022-07-31T12:57:07.616Z,100500.75
2022-07-31T12:59:39.328Z,100506.84
2022-07-31T13:02:09.435Z,100500.53
2022-07-31T13:04:37.624Z,100499.41
2022-07-31T13:07:06.393Z,100498.41
2022-07-31T13:09:34.873Z,100495.03
2022-07-31T13:12:02.980Z,100501.66
2022-07-31T13:14:42.742Z,100501.47
2022-07-31T13:17:12.286Z,100497.75
2022-07-31T13:19:40.251Z,100498.19
2022-07-31T13:22:08.332Z,100498.16
2022-07-31T13:24:36.395Z,100490.03
2022-07-31T13:27:04.715Z,100488.97
2022-07-31T13:29:35.047Z,100496.69
2022-07-31T13:32:10.809Z,100496.00
2022-07-31T13:34:40.255Z,100491.53
2022-07-31T13:37:08.287Z,100488.13
2022-07-31T13:39:36.307Z,100492.22
2022-07-31T13:42:05.595Z,100489.84
2022-07-31T13:44:34.436Z,100493.63
2022-07-31T13:47:02.685Z,100497.72
2022-07-31T13:49:33.401Z,100490.19
2022-07-31T13:52:03.238Z,100487.25
2022-07-31T13:54:31.573Z,100488.06
2022-07-31T13:56:59.611Z,100482.28
2022-07-31T13:59:33.171Z,100483.50
2022-07-31T14:02:04.461Z,100477.72
2022-07-31T14:04:38.441Z,100477.31
2022-07-31T14:07:09.245Z,100477.59
2022-07-31T14:09:37.919Z,100475.97
2022-07-31T14:12:08.159Z,100469.44
2022-07-31T14:14:38.084Z,100468.91
2022-07-31T14:17:06.434Z,100471.88
2022-07-31T14:19:40.611Z,100469.84
2022-07-31T14:22:14.652Z,100470.44
2022-07-31T14:24:45.639Z,100473.06
2022-07-31T14:27:18.833Z,100466.69
2022-07-31T14:29:46.958Z,100459.69
2022-07-31T14:32:35.021Z,100468.63
2022-07-31T14:35:07.786Z,100455.41
2022-07-31T14:37:38.327Z,100462.25
2022-07-31T14:40:07.610Z,100464.47
2022-07-31T14:42:35.909Z,100455.34
2022-07-31T14:45:04.114Z,100450.56
2022-07-31T14:47:39.199Z,100455.38
2022-07-31T14:50:12.098Z,100445.97
2022-07-31T14:52:43.968Z,100448.81
2022-07-31T14:55:11.931Z,100438.75
2022-07-31T14:57:40.251Z,100445.47
2022-07-31T15:00:13.526Z,100442.72
2022-07-31T15:02:42.250Z,100443.66
2022-07-31T15:06:38.712Z,100437.97
2022-07-31T15:08:02.657Z,100430.53
2022-07-31T15:10:32.525Z,100426.75
2022-07-31T15:13:00.642Z,100424.69
2022-07-31T15:15:29.072Z,100431.91
2022-07-31T15:17:59.948Z,100421.81
2022-07-31T15:20:32.824Z,100426.09
2022-07-31T15:23:03.115Z,100423.34
2022-07-31T15:25:31.503Z,100425.06
2022-07-31T15:27:59.622Z,100422.69
2022-07-31T15:30:27.768Z,100425.00
2022-07-31T15:32:55.707Z,100415.50
2022-07-31T15:35:23.842Z,100420.81
2022-07-31T15:37:51.905Z,100413.00
2022-07-31T15:40:21.321Z,100412.81
2022-07-31T15:42:50.015Z,100411.50
2022-07-31T15:45:19.853Z,100398.50
2022-07-31T15:47:50.662Z,100407.03
2022-07-31T15:50:20.890Z,100398.34
2022-07-31T15:52:49.509Z,100395.78
2022-07-31T15:55:18.096Z,100391.53
2022-07-31T15:57:59.379Z,100388.88
2022-07-31T16:00:28.932Z,100387.22
2022-07-31T16:02:56.912Z,100388.84
2022-07-31T16:05:36.512Z,100384.13
2022-07-31T16:08:29.177Z,100369.44
2022-07-31T16:10:56.416Z,100378.78
2022-07-31T16:13:27.538Z,100383.13
2022-07-31T16:15:55.566Z,100381.34
2022-07-31T16:18:23.638Z,100380.69
2022-07-31T16:20:51.926Z,100385.72
2022-07-31T16:23:19.996Z,100385.66
2022-07-31T16:25:50.885Z,100371.06
2022-07-31T16:28:18.905Z,100380.22
2022-07-31T16:30:48.926Z,100379.25
2022-07-31T16:33:16.986Z,100370.84
2022-07-31T16:35:44.963Z,100380.13
2022-07-31T16:38:12.992Z,100370.41
2022-07-31T16:40:41.231Z,100366.66
2022-07-31T16:43:47.457Z,100367.63
2022-07-31T16:46:05.056Z,100361.22
2022-07-31T16:48:33.098Z,100359.81
2022-07-31T16:51:01.525Z,100368.78
2022-07-31T16:54:14.562Z,100359.72
2022-07-31T16:56:19.889Z,100362.22
2022-07-31T16:58:52.668Z,100362.59
2022-07-31T17:01:58.396Z,100364.16
2022-07-31T17:04:13.992Z,100354.84
2022-07-31T17:06:57.287Z,100360.56
2022-07-31T17:09:25.856Z,100353.56
2022-07-31T17:11:57.522Z,100349.88
2022-07-31T17:14:30.911Z,100352.66
2022-07-31T17:17:00.419Z,100354.09
2022-07-31T17:19:41.570Z,100349.09
2022-07-31T17:22:17.798Z,100339.28
2022-07-31T17:24:50.817Z,100342.44
2022-07-31T17:27:20.766Z,100336.78
2022-07-31T17:29:49.410Z,100334.69
2022-07-31T17:32:19.032Z,100338.72
2022-07-31T17:34:49.568Z,100336.91
2022-07-31T17:37:18.398Z,100335.97
2022-07-31T17:39:46.615Z,100344.47
2022-07-31T17:42:14.751Z,100344.50
2022-07-31T17:44:48.946Z,100332.00
2022-07-31T17:47:22.656Z,100335.59
2022-07-31T17:49:50.695Z,100337.16
2022-07-31T17:52:20.909Z,100330.34
2022-07-31T17:54:51.039Z,100335.53
2022-07-31T17:57:19.743Z,100338.19
2022-07-31T17:59:50.611Z,100337.97
2022-07-31T18:02:18.556Z,100341.94
2022-07-31T18:04:48.117Z,100338.16
2022-07-31T18:07:18.346Z,100342.00
2022-07-31T18:09:48.241Z,100336.97
2022-07-31T18:12:16.681Z,100333.19
2022-07-31T18:14:48.404Z,100337.47
2022-07-31T18:17:16.426Z,100324.91
2022-07-31T18:20:01.581Z,100318.03
2022-07-31T18:22:35.032Z,100316.47
2022-07-31T18:25:19.186Z,100315.97
2022-07-31T18:27:47.684Z,100315.72
2022-07-31T18:30:15.793Z,100317.56
2022-07-31T18:32:44.298Z,100320.38
2022-07-31T18:35:13.630Z,100323.47
2022-07-31T18:37:41.885Z,100317.50
2022-07-31T18:40:10.750Z,100317.72
2022-07-31T18:42:39.291Z,100322.41
2022-07-31T18:45:08.279Z,100319.41
2022-07-31T18:47:37.231Z,100319.69
2022-07-31T18:51:01.943Z,100322.56
2022-07-31T18:52:55.124Z,100319.19
2022-07-31T18:55:23.585Z,100322.78
2022-07-31T18:57:52.201Z,100320.91
2022-07-31T19:00:20.129Z,100328.69
2022-07-31T19:02:48.572Z,100335.25
2022-07-31T19:05:21.878Z,100341.88
2022-07-31T19:07:51.828Z,100330.03
2022-07-31T19:10:29.114Z,100333.56
2022-07-31T19:12:58.750Z,100336.47
2022-07-31T19:15:26.722Z,100330.59
2022-07-31T19:17:58.452Z,100332.09
2022-07-31T19:20:41.244Z,100326.47
2022-07-31T19:23:16.797Z,100330.28
2022-07-31T19:26:04.302Z,100340.16
2022-07-31T19:28:33.050Z,100336.38
2022-07-31T19:31:01.454Z,100353.13
2022-07-31T19:33:29.805Z,100341.50
2022-07-31T19:36:01.843Z,100346.22
2022-07-31T19:38:32.194Z,100341.09
2022-07-31T19:41:01.950Z,100345.50
2022-07-31T19:43:30.341Z,100337.31
2022-07-31T19:46:10.127Z,100337.59
2022-07-31T19:48:41.361Z,100335.22
2022-07-31T19:51:09.758Z,100337.34
2022-07-31T19:53:38.177Z,100330.28
2022-07-31T19:56:08.043Z,100336.56
2022-07-31T19:58:37.363Z,100328.38
2022-07-31T20:01:06.046Z,100329.16
2022-07-31T20:03:34.276Z,100331.38
2022-07-31T20:06:02.946Z,100326.13
2022-07-31T20:08:34.135Z,100323.41
2022-07-31T20:11:05.947Z,100330.50
2022-07-31T20:13:37.868Z,100322.84
2022-07-31T20:16:06.964Z,100323.66
2022-07-31T20:18:35.136Z,100331.84
2022-07-31T20:21:07.030Z,100321.19
2022-07-31T20:23:38.441Z,100322.03
2022-07-31T20:26:07.434Z,100317.91
2022-07-31T20:28:38.336Z,100315.47
2022-07-31T20:31:06.459Z,100309.47
2022-07-31T20:33:56.887Z,100313.38
2022-07-31T20:36:26.702Z,100310.09
2022-07-31T20:38:55.244Z,100310.13
2022-07-31T20:41:23.559Z,100312.59
2022-07-31T20:43:53.382Z,100309.31
2022-07-31T20:46:21.723Z,100308.50
2022-07-31T20:48:52.811Z,100308.50
2022-07-31T20:51:24.216Z,100303.41
2022-07-31T20:53:52.964Z,100296.16
2022-07-31T20:56:21.482Z,100292.16
2022-07-31T20:58:51.641Z,100294.06
2022-07-31T21:01:22.119Z,100288.59
2022-07-31T21:03:51.294Z,100287.53
2022-07-31T21:06:21.234Z,100286.47
2022-07-31T21:08:49.480Z,100288.94
2022-07-31T21:11:17.890Z,100290.66
2022-07-31T21:13:55.088Z,100294.81
2022-07-31T21:16:24.507Z,100292.34
2022-07-31T21:18:53.855Z,100293.16
2022-07-31T21:21:22.138Z,100291.25
2022-07-31T21:23:50.545Z,100283.09
2022-07-31T21:26:18.924Z,100292.94
2022-07-31T21:28:51.022Z,100284.28
2022-07-31T21:31:19.551Z,100284.81
2022-07-31T21:33:49.560Z,100280.00
2022-07-31T21:36:18.083Z,100278.84
2022-07-31T21:38:49.784Z,100281.81
2022-07-31T21:41:18.479Z,100278.81
2022-07-31T21:43:58.703Z,100275.53
2022-07-31T21:46:32.074Z,100277.91
2022-07-31T21:49:03.144Z,100269.19
2022-07-31T21:51:33.354Z,100266.75
2022-07-31T21:54:01.739Z,100256.38
2022-07-31T21:56:29.790Z,100259.69
2022-07-31T21:58:58.375Z,100263.81
2022-07-31T22:01:26.347Z,100252.91
2022-07-31T22:03:54.419Z,100259.19
2022-07-31T22:06:41.241Z,100254.13
2022-07-31T22:09:09.919Z,100254.97
2022-07-31T22:11:38.115Z,100258.09
2022-07-31T22:14:09.237Z,100254.28
2022-07-31T22:16:38.534Z,100258.66
2022-07-31T22:19:06.874Z,100257.03
2022-07-31T22:21:36.888Z,100260.06
2022-07-31T22:24:05.636Z,100252.44
2022-07-31T22:26:33.911Z,100253.00
2022-07-31T22:29:02.909Z,100254.91
2022-07-31T22:31:31.179Z,100256.53
2022-07-31T22:33:59.554Z,100247.03
2022-07-31T22:36:28.747Z,100245.16
2022-07-31T22:38:58.413Z,100248.97
2022-07-31T22:41:26.487Z,100249.25
2022-07-31T22:44:14.621Z,100254.09
2022-07-31T22:46:43.549Z,100248.38
2022-07-31T22:49:12.038Z,100245.66
2022-07-31T22:51:43.665Z,100248.09
2022-07-31T22:54:15.648Z,100249.50
2022-07-31T22:56:43.698Z,100249.25
2022-07-31T22:59:11.957Z,100247.66
2022-07-31T23:01:39.952Z,100253.38
2022-07-31T23:04:07.914Z,100244.72
2022-07-31T23:06:36.260Z,100248.28
2022-07-31T23:09:04.582Z,100248.00
2022-07-31T23:11:34.187Z,100247.75
2022-07-31T23:14:03.600Z,100242.84
2022-07-31T23:16:36.844Z,100247.16
2022-07-31T23:19:05.013Z,100243.59
2022-07-31T23:21:33.302Z,100235.16
2022-07-31T23:24:01.455Z,100243.59
2022-07-31T23:26:29.451Z,100244.72
2022-07-31T23:28:58.754Z,100245.28
2022-07-31T23:31:27.219Z,100243.66
2022-07-31T23:33:55.539Z,100246.94
2022-07-31T23:36:23.814Z,100237.13
2022-07-31T23:38:52.202Z,100240.66
2022-07-31T23:41:41.217Z,100237.44
2022-07-31T23:44:10.766Z,100240.69
2022-07-31T23:46:40.301Z,100232.81
2022-07-31T23:49:09.215Z,100236.38
2022-07-31T23:51:38.875Z,100239.59
2022-07-31T23:54:07.776Z,100242.31
2022-07-31T23:56:35.763Z,100244.47
2022-07-31T23:59:03.766Z,100243.09
